sensor_id;sensor_type;location;lat;lon;timestamp;pressure;altitude;pressure_sealevel;temperature;humidity
77867;BME280;67271;59.120;37.970;2023-07-20T00:04:20;97998.66;;;14.84;80.71
77867;BME280;67271;59.120;37.970;2023-07-20T00:06:46;97992.13;;;14.85;80.85
77867;BME280;67271;59.120;37.970;2023-07-20T00:09:12;97989.66;;;14.89;80.96
77867;BME280;67271;59.120;37.970;2023-07-20T00:11:38;97997.56;;;14.90;80.65
77867;BME280;67271;59.120;37.970;2023-07-20T00:14:05;97985.03;;;14.89;80.65
77867;BME280;67271;59.120;37.970;2023-07-20T00:16:31;97992.94;;;14.91;80.58
77867;BME280;67271;59.120;37.970;2023-07-20T00:18:57;97987.47;;;14.91;80.59
77867;BME280;67271;59.120;37.970;2023-07-20T00:21:23;97990.19;;;14.91;80.66
77867;BME280;67271;59.120;37.970;2023-07-20T00:23:49;97993.75;;;14.91;80.89
77867;BME280;67271;59.120;37.970;2023-07-20T00:26:15;97985.56;;;14.91;80.58
77867;BME280;67271;59.120;37.970;2023-07-20T00:28:41;98002.72;;;14.92;80.94
77867;BME280;67271;59.120;37.970;2023-07-20T00:31:07;97994.56;;;14.92;80.88
77867;BME280;67271;59.120;37.970;2023-07-20T00:33:32;97976.59;;;14.91;81.05
77867;BME280;67271;59.120;37.970;2023-07-20T00:35:58;98007.09;;;14.93;81.06
77867;BME280;67271;59.120;37.970;2023-07-20T00:38:24;97995.66;;;14.91;80.86
77867;BME280;67271;59.120;37.970;2023-07-20T00:40:51;97987.75;;;14.89;81.07
77867;BME280;67271;59.120;37.970;2023-07-20T00:43:17;97989.13;;;14.92;80.79
77867;BME280;67271;59.120;37.970;2023-07-20T00:45:43;97985.56;;;14.91;81.16
77867;BME280;67271;59.120;37.970;2023-07-20T00:48:10;97988.28;;;14.91;80.96
77867;BME280;67271;59.120;37.970;2023-07-20T00:50:37;97995.38;;;14.92;80.83
77867;BME280;67271;59.120;37.970;2023-07-20T00:53:04;97978.75;;;14.89;80.78
77867;BME280;67271;59.120;37.970;2023-07-20T00:55:32;98002.47;;;14.88;80.93
77867;BME280;67271;59.120;37.970;2023-07-20T00:57:59;97990.47;;;14.89;81.12
77867;BME280;67271;59.120;37.970;2023-07-20T01:00:25;97999.19;;;14.91;80.89
77867;BME280;67271;59.120;37.970;2023-07-20T01:02:51;97999.19;;;14.91;80.82
77867;BME280;67271;59.120;37.970;2023-07-20T01:05:17;98003.28;;;14.89;80.87
77867;BME280;67271;59.120;37.970;2023-07-20T01:07:59;98007.94;;;14.88;80.87
77867;BME280;67271;59.120;37.970;2023-07-20T01:10:54;98006.84;;;14.84;81.13
77867;BME280;67271;59.120;37.970;2023-07-20T01:13:21;98012.31;;;14.79;81.21
77867;BME280;67271;59.120;37.970;2023-07-20T01:15:50;98015.53;;;14.81;81.17
77867;BME280;67271;59.120;37.970;2023-07-20T01:18:19;98022.09;;;14.85;81.08
77867;BME280;67271;59.120;37.970;2023-07-20T01:20:45;98022.09;;;14.85;81.33
77867;BME280;67271;59.120;37.970;2023-07-20T01:23:22;98024.00;;;14.85;81.22
77867;BME280;67271;59.120;37.970;2023-07-20T01:26:07;98024.53;;;14.87;81.04
77867;BME280;67271;59.120;37.970;2023-07-20T01:29:11;98035.69;;;14.85;81.10
77867;BME280;67271;59.120;37.970;2023-07-20T01:31:42;98025.34;;;14.87;81.25
77867;BME280;67271;59.120;37.970;2023-07-20T01:34:11;98029.72;;;14.88;81.40
77867;BME280;67271;59.120;37.970;2023-07-20T01:36:43;98035.94;;;14.89;81.31
77867;BME280;67271;59.120;37.970;2023-07-20T01:39:10;98033.50;;;14.92;81.33
77867;BME280;67271;59.120;37.970;2023-07-20T01:41:36;98025.88;;;14.94;81.32
77867;BME280;67271;59.120;37.970;2023-07-20T01:44:04;98035.69;;;14.95;81.17
77867;BME280;67271;59.120;37.970;2023-07-20T01:46:30;98040.56;;;14.98;81.18
77867;BME280;67271;59.120;37.970;2023-07-20T01:48:57;98051.72;;;14.97;81.44
77867;BME280;67271;59.120;37.970;2023-07-20T01:51:23;98049.31;;;14.95;81.43
77867;BME280;67271;59.120;37.970;2023-07-20T01:53:49;98043.31;;;14.93;81.74
77867;BME280;67271;59.120;37.970;2023-07-20T01:56:15;98044.94;;;14.89;81.83
77867;BME280;67271;59.120;37.970;2023-07-20T01:58:42;98039.22;;;14.91;81.88
77867;BME280;67271;59.120;37.970;2023-07-20T02:01:07;98041.94;;;14.91;81.82
77867;BME280;67271;59.120;37.970;2023-07-20T02:03:33;98040.59;;;14.93;81.91
77867;BME280;67271;59.120;37.970;2023-07-20T02:05:59;98047.66;;;14.94;81.68
77867;BME280;67271;59.120;37.970;2023-07-20T02:08:26;98035.69;;;14.95;81.76
77867;BME280;67271;59.120;37.970;2023-07-20T02:10:54;98043.59;;;14.92;81.88
77867;BME280;67271;59.120;37.970;2023-07-20T02:13:20;98044.13;;;14.94;81.99
77867;BME280;67271;59.120;37.970;2023-07-20T02:15:55;98035.97;;;14.94;82.06
77867;BME280;67271;59.120;37.970;2023-07-20T02:18:21;98048.75;;;14.93;82.17
77867;BME280;67271;59.120;37.970;2023-07-20T02:20:46;98045.22;;;14.93;82.07
77867;BME280;67271;59.120;37.970;2023-07-20T02:23:12;98045.75;;;14.95;82.08
77867;BME280;67271;59.120;37.970;2023-07-20T02:25:38;98047.66;;;14.99;82.25
77867;BME280;67271;59.120;37.970;2023-07-20T02:28:06;98054.47;;;15.02;82.14
77867;BME280;67271;59.120;37.970;2023-07-20T02:30:32;98036.22;;;15.02;82.22
77867;BME280;67271;59.120;37.970;2023-07-20T02:32:58;98050.91;;;14.96;82.67
77867;BME280;67271;59.120;37.970;2023-07-20T02:35:24;98044.41;;;14.92;82.51
77867;BME280;67271;59.120;37.970;2023-07-20T02:37:50;98043.03;;;14.90;82.53
77867;BME280;67271;59.120;37.970;2023-07-20T02:40:16;98046.88;;;14.84;82.71
77867;BME280;67271;59.120;37.970;2023-07-20T02:42:42;98042.50;;;14.83;82.62
77867;BME280;67271;59.120;37.970;2023-07-20T02:45:08;98047.69;;;14.84;82.54
77867;BME280;67271;59.120;37.970;2023-07-20T02:47:34;98048.50;;;14.85;82.65
77867;BME280;67271;59.120;37.970;2023-07-20T02:50:00;98050.69;;;14.83;82.66
77867;BME280;67271;59.120;37.970;2023-07-20T02:52:29;98049.88;;;14.77;82.65
77867;BME280;67271;59.120;37.970;2023-07-20T02:54:55;98059.16;;;14.71;82.95
77867;BME280;67271;59.120;37.970;2023-07-20T02:57:21;98054.25;;;14.73;82.67
77867;BME280;67271;59.120;37.970;2023-07-20T02:59:47;98065.16;;;14.73;82.76
77867;BME280;67271;59.120;37.970;2023-07-20T03:02:13;98069.22;;;14.70;82.68
77867;BME280;67271;59.120;37.970;2023-07-20T03:04:38;98058.59;;;14.69;82.90
77867;BME280;67271;59.120;37.970;2023-07-20T03:07:05;98066.22;;;14.72;82.76
77867;BME280;67271;59.120;37.970;2023-07-20T03:09:31;98068.41;;;14.70;82.83
77867;BME280;67271;59.120;37.970;2023-07-20T03:11:57;98070.59;;;14.58;83.12
77867;BME280;67271;59.120;37.970;2023-07-20T03:14:23;98069.25;;;14.50;83.52
77867;BME280;67271;59.120;37.970;2023-07-20T03:16:49;98065.69;;;14.50;83.66
77867;BME280;67271;59.120;37.970;2023-07-20T03:19:15;98074.13;;;14.48;83.87
77867;BME280;67271;59.120;37.970;2023-07-20T03:21:42;98072.22;;;14.49;83.67
77867;BME280;67271;59.120;37.970;2023-07-20T03:24:08;98078.50;;;14.49;83.84
77867;BME280;67271;59.120;37.970;2023-07-20T03:26:35;98072.75;;;14.46;83.83
77867;BME280;67271;59.120;37.970;2023-07-20T03:29:01;98076.00;;;14.38;84.23
77867;BME280;67271;59.120;37.970;2023-07-20T03:31:27;98081.44;;;14.38;84.13
77867;BME280;67271;59.120;37.970;2023-07-20T03:33:53;98078.75;;;14.48;84.00
77867;BME280;67271;59.120;37.970;2023-07-20T03:36:18;98089.09;;;14.56;83.83
77867;BME280;67271;59.120;37.970;2023-07-20T03:38:45;98083.91;;;14.59;83.82
77867;BME280;67271;59.120;37.970;2023-07-20T03:41:11;98081.50;;;14.58;84.10
77867;BME280;67271;59.120;37.970;2023-07-20T03:43:37;98085.28;;;14.57;84.08
77867;BME280;67271;59.120;37.970;2023-07-20T03:46:03;98086.94;;;14.58;84.09
77867;BME280;67271;59.120;37.970;2023-07-20T03:48:33;98080.94;;;14.61;84.47
77867;BME280;67271;59.120;37.970;2023-07-20T03:50:59;98086.66;;;14.64;84.23
77867;BME280;67271;59.120;37.970;2023-07-20T03:53:26;98086.09;;;14.67;84.35
77867;BME280;67271;59.120;37.970;2023-07-20T03:55:53;98091.53;;;14.67;84.51
77867;BME280;67271;59.120;37.970;2023-07-20T03:58:19;98075.75;;;14.69;84.33
77867;BME280;67271;59.120;37.970;2023-07-20T04:00:50;98070.59;;;14.73;84.44
77867;BME280;67271;59.120;37.970;2023-07-20T04:03:16;98072.22;;;14.69;84.56
77867;BME280;67271;59.120;37.970;2023-07-20T04:05:43;98076.03;;;14.73;84.48
77867;BME280;67271;59.120;37.970;2023-07-20T04:08:10;98076.00;;;14.88;84.02
77867;BME280;67271;59.120;37.970;2023-07-20T04:10:39;98069.44;;;14.99;83.87
77867;BME280;67271;59.120;37.970;2023-07-20T04:13:08;98078.94;;;15.07;83.72
77867;BME280;67271;59.120;37.970;2023-07-20T04:15:34;98075.94;;;15.14;83.57
77867;BME280;67271;59.120;37.970;2023-07-20T04:18:00;98072.13;;;15.15;83.47
77867;BME280;67271;59.120;37.970;2023-07-20T04:20:26;98081.66;;;15.12;83.79
77867;BME280;67271;59.120;37.970;2023-07-20T04:22:52;98085.78;;;15.09;83.78
77867;BME280;67271;59.120;37.970;2023-07-20T04:25:22;98085.75;;;15.04;83.95
77867;BME280;67271;59.120;37.970;2023-07-20T04:27:51;98093.97;;;14.94;84.15
77867;BME280;67271;59.120;37.970;2023-07-20T04:30:18;98094.25;;;14.93;84.17
77867;BME280;67271;59.120;37.970;2023-07-20T04:32:49;98090.97;;;14.91;84.77
77867;BME280;67271;59.120;37.970;2023-07-20T04:38:11;98101.91;;;14.81;85.08
77867;BME280;67271;59.120;37.970;2023-07-20T04:40:38;98098.59;;;14.89;85.06
77867;BME280;67271;59.120;37.970;2023-07-20T04:43:04;98111.13;;;14.90;85.13
77867;BME280;67271;59.120;37.970;2023-07-20T04:45:31;98107.88;;;14.88;85.07
77867;BME280;67271;59.120;37.970;2023-07-20T04:47:57;98111.94;;;14.90;85.12
77867;BME280;67271;59.120;37.970;2023-07-20T04:50:23;98112.50;;;14.87;84.85
77867;BME280;67271;59.120;37.970;2023-07-20T04:52:51;98102.69;;;14.81;85.48
77867;BME280;67271;59.120;37.970;2023-07-20T04:55:19;98108.41;;;14.75;85.33
77867;BME280;67271;59.120;37.970;2023-07-20T04:57:45;98106.50;;;14.75;85.57
77867;BME280;67271;59.120;37.970;2023-07-20T05:00:12;98109.78;;;14.77;85.59
77867;BME280;67271;59.120;37.970;2023-07-20T05:02:38;98105.41;;;14.76;85.66
77867;BME280;67271;59.120;37.970;2023-07-20T05:05:04;98110.59;;;14.83;85.57
77867;BME280;67271;59.120;37.970;2023-07-20T05:07:32;98118.47;;;14.94;85.27
77867;BME280;67271;59.120;37.970;2023-07-20T05:09:58;98118.44;;;15.04;84.91
77867;BME280;67271;59.120;37.970;2023-07-20T05:12:24;98108.66;;;15.03;84.92
77867;BME280;67271;59.120;37.970;2023-07-20T05:14:50;98117.38;;;15.00;84.95
77867;BME280;67271;59.120;37.970;2023-07-20T05:17:16;98105.94;;;14.93;84.87
77867;BME280;67271;59.120;37.970;2023-07-20T05:19:42;98112.47;;;14.97;84.89
77867;BME280;67271;59.120;37.970;2023-07-20T05:22:09;98116.84;;;15.03;84.77
77867;BME280;67271;59.120;37.970;2023-07-20T05:24:36;98114.63;;;15.05;85.05
77867;BME280;67271;59.120;37.970;2023-07-20T05:27:02;98111.66;;;15.07;85.05
77867;BME280;67271;59.120;37.970;2023-07-20T05:29:28;98120.06;;;15.16;84.65
77867;BME280;67271;59.120;37.970;2023-07-20T05:31:54;98111.63;;;15.12;84.92
77867;BME280;67271;59.120;37.970;2023-07-20T05:34:20;98117.63;;;15.14;84.71
77867;BME280;67271;59.120;37.970;2023-07-20T05:36:46;98117.91;;;15.18;84.57
77867;BME280;67271;59.120;37.970;2023-07-20T05:39:12;98116.50;;;15.30;84.30
77867;BME280;67271;59.120;37.970;2023-07-20T05:41:38;98110.75;;;15.37;84.17
77867;BME280;67271;59.120;37.970;2023-07-20T05:44:04;98118.09;;;15.41;84.08
77867;BME280;67271;59.120;37.970;2023-07-20T05:46:29;98112.63;;;15.41;83.97
77867;BME280;67271;59.120;37.970;2023-07-20T05:48:55;98106.09;;;15.47;83.94
77867;BME280;67271;59.120;37.970;2023-07-20T05:51:21;98101.69;;;15.52;83.77
77867;BME280;67271;59.120;37.970;2023-07-20T05:53:47;98115.91;;;15.54;83.69
77867;BME280;67271;59.120;37.970;2023-07-20T05:56:13;98103.06;;;15.59;83.78
77867;BME280;67271;59.120;37.970;2023-07-20T05:58:39;98104.44;;;15.62;83.75
77867;BME280;67271;59.120;37.970;2023-07-20T06:01:05;98106.03;;;15.68;83.63
77867;BME280;67271;59.120;37.970;2023-07-20T06:03:32;98105.47;;;15.76;83.37
77867;BME280;67271;59.120;37.970;2023-07-20T06:06:03;98108.16;;;15.86;82.99
77867;BME280;67271;59.120;37.970;2023-07-20T06:08:32;98105.88;;;15.98;82.77
77867;BME280;67271;59.120;37.970;2023-07-20T06:10:57;98115.16;;;15.97;82.96
77867;BME280;67271;59.120;37.970;2023-07-20T06:13:23;98114.63;;;15.95;82.90
77867;BME280;67271;59.120;37.970;2023-07-20T06:15:50;98109.97;;;16.01;82.97
77867;BME280;67271;59.120;37.970;2023-07-20T06:18:16;98111.28;;;16.08;82.78
77867;BME280;67271;59.120;37.970;2023-07-20T06:20:42;98107.66;;;16.23;82.30
77867;BME280;67271;59.120;37.970;2023-07-20T06:23:08;98112.50;;;16.31;81.89
77867;BME280;67271;59.120;37.970;2023-07-20T06:25:34;98114.13;;;16.32;81.95
77867;BME280;67271;59.120;37.970;2023-07-20T06:28:00;98119.56;;;16.37;81.84
77867;BME280;67271;59.120;37.970;2023-07-20T06:30:25;98118.63;;;16.52;81.63
77867;BME280;67271;59.120;37.970;2023-07-20T06:32:52;98119.47;;;16.52;81.57
77867;BME280;67271;59.120;37.970;2023-07-20T06:35:17;98123.31;;;16.46;81.63
77867;BME280;67271;59.120;37.970;2023-07-20T06:37:43;98135.03;;;16.47;81.62
77867;BME280;67271;59.120;37.970;2023-07-20T06:40:09;98133.38;;;16.51;81.75
77867;BME280;67271;59.120;37.970;2023-07-20T06:42:35;98129.56;;;16.52;81.53
77867;BME280;67271;59.120;37.970;2023-07-20T06:45:02;98137.47;;;16.53;81.71
77867;BME280;67271;59.120;37.970;2023-07-20T06:47:29;98142.41;;;16.51;81.41
77867;BME280;67271;59.120;37.970;2023-07-20T06:49:55;98136.34;;;16.54;81.57
77867;BME280;67271;59.120;37.970;2023-07-20T06:52:21;98139.31;;;16.68;81.04
77867;BME280;67271;59.120;37.970;2023-07-20T06:54:47;98132.72;;;16.69;80.92
77867;BME280;67271;59.120;37.970;2023-07-20T06:57:14;98140.69;;;16.66;80.72
77867;BME280;67271;59.120;37.970;2023-07-20T06:59:40;98140.97;;;16.64;80.89
77867;BME280;67271;59.120;37.970;2023-07-20T07:02:06;98141.84;;;16.49;81.15
77867;BME280;67271;59.120;37.970;2023-07-20T07:04:32;98151.78;;;16.35;81.43
77867;BME280;67271;59.120;37.970;2023-07-20T07:07:01;98149.31;;;16.39;81.65
77867;BME280;67271;59.120;37.970;2023-07-20T07:09:27;98152.88;;;16.34;81.23
77867;BME280;67271;59.120;37.970;2023-07-20T07:11:53;98154.00;;;16.28;81.37
77867;BME280;67271;59.120;37.970;2023-07-20T07:14:20;98161.94;;;16.30;81.44
77867;BME280;67271;59.120;37.970;2023-07-20T07:16:49;98153.47;;;16.31;80.99
77867;BME280;67271;59.120;37.970;2023-07-20T07:19:15;98152.84;;;16.39;80.72
77867;BME280;67271;59.120;37.970;2023-07-20T07:21:41;98150.91;;;16.45;80.72
77867;BME280;67271;59.120;37.970;2023-07-20T07:24:07;98153.81;;;16.58;80.38
77867;BME280;67271;59.120;37.970;2023-07-20T07:26:33;98154.50;;;16.79;80.01
77867;BME280;67271;59.120;37.970;2023-07-20T07:28:59;98153.00;;;16.92;79.63
77867;BME280;67271;59.120;37.970;2023-07-20T07:31:25;98156.88;;;16.91;79.42
77867;BME280;67271;59.120;37.970;2023-07-20T07:33:51;98155.25;;;16.85;79.69
77867;BME280;67271;59.120;37.970;2023-07-20T07:36:17;98156.28;;;16.94;79.60
77867;BME280;67271;59.120;37.970;2023-07-20T07:38:43;98151.78;;;17.08;79.06
77867;BME280;67271;59.120;37.970;2023-07-20T07:41:08;98156.59;;;17.21;78.84
77867;BME280;67271;59.120;37.970;2023-07-20T07:43:34;98162.41;;;17.38;78.39
77867;BME280;67271;59.120;37.970;2023-07-20T07:46:00;98158.59;;;17.39;78.40
77867;BME280;67271;59.120;37.970;2023-07-20T07:48:27;98163.97;;;17.21;79.05
77867;BME280;67271;59.120;37.970;2023-07-20T07:50:54;98163.53;;;17.09;79.27
77867;BME280;67271;59.120;37.970;2023-07-20T07:53:20;98159.94;;;17.13;78.95
77867;BME280;67271;59.120;37.970;2023-07-20T07:55:49;98155.47;;;17.22;78.71
77867;BME280;67271;59.120;37.970;2023-07-20T07:58:15;98166.84;;;17.34;78.39
77867;BME280;67271;59.120;37.970;2023-07-20T08:00:41;98157.94;;;17.48;78.16
77867;BME280;67271;59.120;37.970;2023-07-20T08:03:08;98149.00;;;17.42;78.09
77867;BME280;67271;59.120;37.970;2023-07-20T08:05:34;98166.38;;;17.27;78.79
77867;BME280;67271;59.120;37.970;2023-07-20T08:08:03;98170.13;;;17.36;78.41
77867;BME280;67271;59.120;37.970;2023-07-20T08:10:30;98174.28;;;17.53;77.95
77867;BME280;67271;59.120;37.970;2023-07-20T08:12:56;98185.41;;;17.66;77.88
77867;BME280;67271;59.120;37.970;2023-07-20T08:15:22;98177.50;;;17.89;77.27
77867;BME280;67271;59.120;37.970;2023-07-20T08:17:48;98178.88;;;17.86;77.21
77867;BME280;67271;59.120;37.970;2023-07-20T08:20:14;98187.28;;;17.95;77.24
77867;BME280;67271;59.120;37.970;2023-07-20T08:22:41;98168.41;;;18.12;76.99
77867;BME280;67271;59.120;37.970;2023-07-20T08:25:08;98181.91;;;18.08;76.90
77867;BME280;67271;59.120;37.970;2023-07-20T08:27:36;98192.72;;;18.18;76.86
77867;BME280;67271;59.120;37.970;2023-07-20T08:30:03;98198.13;;;18.42;76.29
77867;BME280;67271;59.120;37.970;2023-07-20T08:32:30;98180.38;;;18.40;76.47
77867;BME280;67271;59.120;37.970;2023-07-20T08:34:56;98179.13;;;18.32;76.63
77867;BME280;67271;59.120;37.970;2023-07-20T08:37:22;98191.38;;;18.35;76.36
77867;BME280;67271;59.120;37.970;2023-07-20T08:39:48;98187.03;;;18.52;75.76
77867;BME280;67271;59.120;37.970;2023-07-20T08:42:14;98189.69;;;18.63;75.44
77867;BME280;67271;59.120;37.970;2023-07-20T08:44:42;98181.91;;;18.70;75.19
77867;BME280;67271;59.120;37.970;2023-07-20T08:47:08;98178.34;;;18.69;74.84
77867;BME280;67271;59.120;37.970;2023-07-20T08:49:35;98184.97;;;18.82;74.58
77867;BME280;67271;59.120;37.970;2023-07-20T08:52:01;98175.94;;;19.00;73.74
77867;BME280;67271;59.120;37.970;2023-07-20T08:54:32;98175.97;;;19.14;73.31
77867;BME280;67271;59.120;37.970;2023-07-20T08:57:02;98175.44;;;19.44;72.51
77867;BME280;67271;59.120;37.970;2023-07-20T08:59:28;98175.88;;;19.51;72.35
77867;BME280;67271;59.120;37.970;2023-07-20T09:01:56;98178.97;;;19.45;72.39
77867;BME280;67271;59.120;37.970;2023-07-20T09:04:23;98174.84;;;19.47;72.47
77867;BME280;67271;59.120;37.970;2023-07-20T09:06:50;98183.31;;;19.64;71.83
77867;BME280;67271;59.120;37.970;2023-07-20T09:09:16;98183.31;;;19.64;71.71
77867;BME280;67271;59.120;37.970;2023-07-20T09:11:42;98186.66;;;19.61;71.46
77867;BME280;67271;59.120;37.970;2023-07-20T09:14:09;98183.22;;;19.69;71.29
77867;BME280;67271;59.120;37.970;2023-07-20T09:16:54;98180.38;;;19.75;70.71
77867;BME280;67271;59.120;37.970;2023-07-20T09:19:20;98176.69;;;19.79;70.57
77867;BME280;67271;59.120;37.970;2023-07-20T09:21:48;98166.94;;;20.00;70.00
77867;BME280;67271;59.120;37.970;2023-07-20T09:24:14;98177.50;;;20.34;69.27
77867;BME280;67271;59.120;37.970;2023-07-20T09:26:42;98160.47;;;20.32;69.21
77867;BME280;67271;59.120;37.970;2023-07-20T09:29:11;98167.50;;;20.38;68.88
77867;BME280;67271;59.120;37.970;2023-07-20T09:31:37;98168.94;;;20.50;68.79
77867;BME280;67271;59.120;37.970;2023-07-20T09:34:12;98169.56;;;20.69;68.35
77867;BME280;67271;59.120;37.970;2023-07-20T09:36:38;98174.47;;;20.94;67.92
77867;BME280;67271;59.120;37.970;2023-07-20T09:39:04;98166.91;;;21.00;67.79
77867;BME280;67271;59.120;37.970;2023-07-20T09:41:39;98156.41;;;20.79;67.86
77867;BME280;67271;59.120;37.970;2023-07-20T09:44:07;98172.22;;;20.74;68.42
77867;BME280;67271;59.120;37.970;2023-07-20T09:46:42;98170.38;;;20.69;69.02
77867;BME280;67271;59.120;37.970;2023-07-20T09:49:08;98167.84;;;20.73;68.40
77867;BME280;67271;59.120;37.970;2023-07-20T09:51:35;98174.47;;;20.94;67.15
77867;BME280;67271;59.120;37.970;2023-07-20T09:54:02;98173.88;;;21.19;66.02
77867;BME280;67271;59.120;37.970;2023-07-20T09:56:30;98168.91;;;21.61;65.32
77867;BME280;67271;59.120;37.970;2023-07-20T09:58:56;98171.78;;;21.87;64.65
77867;BME280;67271;59.120;37.970;2023-07-20T10:01:23;98179.34;;;21.81;64.22
77867;BME280;67271;59.120;37.970;2023-07-20T10:03:53;98169.19;;;21.90;62.68
77867;BME280;67271;59.120;37.970;2023-07-20T10:06:23;98175.34;;;21.87;62.49
77867;BME280;67271;59.120;37.970;2023-07-20T10:08:53;98185.56;;;21.95;62.83
77867;BME280;67271;59.120;37.970;2023-07-20T10:11:21;98181.94;;;21.78;63.66
77867;BME280;67271;59.120;37.970;2023-07-20T10:13:51;98192.50;;;21.22;65.36
77867;BME280;67271;59.120;37.970;2023-07-20T10:16:43;98200.56;;;20.83;66.28
77867;BME280;67271;59.120;37.970;2023-07-20T10:20:05;98195.56;;;20.63;66.95
77867;BME280;67271;59.120;37.970;2023-07-20T10:22:15;98212.69;;;20.32;68.04
77867;BME280;67271;59.120;37.970;2023-07-20T10:24:46;98200.09;;;19.90;68.89
77867;BME280;67271;59.120;37.970;2023-07-20T10:27:20;98197.84;;;19.92;68.96
77867;BME280;67271;59.120;37.970;2023-07-20T10:29:47;98204.78;;;20.03;68.78
77867;BME280;67271;59.120;37.970;2023-07-20T10:32:14;98200.50;;;20.11;68.53
77867;BME280;67271;59.120;37.970;2023-07-20T10:34:40;98202.50;;;20.33;67.76
77867;BME280;67271;59.120;37.970;2023-07-20T10:37:06;98205.84;;;20.57;67.18
77867;BME280;67271;59.120;37.970;2023-07-20T10:39:32;98208.31;;;20.59;66.90
77867;BME280;67271;59.120;37.970;2023-07-20T10:42:09;98222.66;;;20.56;66.97
77867;BME280;67271;59.120;37.970;2023-07-20T10:44:38;98226.28;;;20.65;66.72
77867;BME280;67271;59.120;37.970;2023-07-20T10:47:12;98224.19;;;20.84;65.90
77867;BME280;67271;59.120;37.970;2023-07-20T10:49:57;98220.66;;;21.06;65.57
77867;BME280;67271;59.120;37.970;2023-07-20T10:52:24;98232.63;;;21.23;65.00
77867;BME280;67271;59.120;37.970;2023-07-20T10:54:49;98230.56;;;21.29;65.22
77867;BME280;67271;59.120;37.970;2023-07-20T10:57:24;98227.59;;;21.03;66.02
77867;BME280;67271;59.120;37.970;2023-07-20T10:59:50;98229.34;;;20.63;67.54
77867;BME280;67271;59.120;37.970;2023-07-20T11:02:18;98231.00;;;19.96;69.04
77867;BME280;67271;59.120;37.970;2023-07-20T11:04:46;98230.28;;;19.44;69.91
77867;BME280;67271;59.120;37.970;2023-07-20T11:07:17;98234.56;;;19.18;70.59
77867;BME280;67271;59.120;37.970;2023-07-20T11:09:44;98243.78;;;19.08;70.66
77867;BME280;67271;59.120;37.970;2023-07-20T11:12:14;98247.41;;;19.04;70.85
77867;BME280;67271;59.120;37.970;2023-07-20T11:14:55;98244.47;;;18.81;71.62
77867;BME280;67271;59.120;37.970;2023-07-20T11:17:33;98252.34;;;18.45;72.13
77867;BME280;67271;59.120;37.970;2023-07-20T11:20:00;98241.13;;;18.23;72.92
77867;BME280;67271;59.120;37.970;2023-07-20T11:22:27;98249.09;;;18.19;72.79
77867;BME280;67271;59.120;37.970;2023-07-20T11:24:57;98253.78;;;18.19;72.88
77867;BME280;67271;59.120;37.970;2023-07-20T11:27:23;98252.97;;;18.18;72.85
77867;BME280;67271;59.120;37.970;2023-07-20T11:29:49;98287.31;;;18.06;73.24
77867;BME280;67271;59.120;37.970;2023-07-20T11:32:23;98280.34;;;17.61;74.54
77867;BME280;67271;59.120;37.970;2023-07-20T11:34:49;98285.94;;;16.73;77.45
77867;BME280;67271;59.120;37.970;2023-07-20T11:37:19;98302.00;;;16.15;79.16
77867;BME280;67271;59.120;37.970;2023-07-20T11:39:45;98290.59;;;15.93;79.77
77867;BME280;67271;59.120;37.970;2023-07-20T11:42:12;98284.63;;;15.80;80.13
77867;BME280;67271;59.120;37.970;2023-07-20T11:44:40;98285.19;;;15.77;80.32
77867;BME280;67271;59.120;37.970;2023-07-20T11:47:10;98278.88;;;15.87;80.18
77867;BME280;67271;59.120;37.970;2023-07-20T11:49:44;98281.00;;;16.05;79.79
77867;BME280;67271;59.120;37.970;2023-07-20T11:52:15;98288.88;;;16.17;79.53
77867;BME280;67271;59.120;37.970;2023-07-20T11:54:42;98284.41;;;16.41;78.97
77867;BME280;67271;59.120;37.970;2023-07-20T11:57:21;98284.81;;;16.79;77.90
77867;BME280;67271;59.120;37.970;2023-07-20T11:59:54;98288.03;;;16.91;77.49
77867;BME280;67271;59.120;37.970;2023-07-20T12:02:23;98292.25;;;17.07;77.00
77867;BME280;67271;59.120;37.970;2023-07-20T12:04:52;98294.97;;;17.12;76.90
77867;BME280;67271;59.120;37.970;2023-07-20T12:07:19;98289.69;;;17.26;76.89
77867;BME280;67271;59.120;37.970;2023-07-20T12:10:03;98280.03;;;17.67;75.62
77867;BME280;67271;59.120;37.970;2023-07-20T12:12:34;98292.88;;;18.19;74.67
77867;BME280;67271;59.120;37.970;2023-07-20T12:15:22;98294.16;;;18.51;73.64
77867;BME280;67271;59.120;37.970;2023-07-20T12:17:59;98296.97;;;18.88;73.10
77867;BME280;67271;59.120;37.970;2023-07-20T12:20:31;98290.25;;;19.00;72.76
77867;BME280;67271;59.120;37.970;2023-07-20T12:23:11;98293.97;;;19.09;72.54
77867;BME280;67271;59.120;37.970;2023-07-20T12:25:42;98301.00;;;19.15;72.80
77867;BME280;67271;59.120;37.970;2023-07-20T12:28:10;98296.53;;;19.38;72.64
77867;BME280;67271;59.120;37.970;2023-07-20T12:30:37;98289.47;;;19.50;72.78
77867;BME280;67271;59.120;37.970;2023-07-20T12:33:04;98285.25;;;19.71;71.87
77867;BME280;67271;59.120;37.970;2023-07-20T12:35:30;98296.34;;;19.66;72.23
77867;BME280;67271;59.120;37.970;2023-07-20T12:37:57;98295.22;;;19.67;72.34
77867;BME280;67271;59.120;37.970;2023-07-20T12:40:24;98296.34;;;19.66;72.18
77867;BME280;67271;59.120;37.970;2023-07-20T12:42:52;98310.16;;;19.61;72.08
77867;BME280;67271;59.120;37.970;2023-07-20T12:45:20;98311.03;;;19.57;72.02
77867;BME280;67271;59.120;37.970;2023-07-20T12:47:47;98304.94;;;19.41;72.20
77867;BME280;67271;59.120;37.970;2023-07-20T12:50:13;98308.69;;;19.31;71.95
77867;BME280;67271;59.120;37.970;2023-07-20T12:52:40;98306.81;;;19.27;71.91
77867;BME280;67271;59.120;37.970;2023-07-20T12:55:07;98307.34;;;19.29;71.49
77867;BME280;67271;59.120;37.970;2023-07-20T12:57:37;98299.66;;;19.31;71.06
77867;BME280;67271;59.120;37.970;2023-07-20T13:00:06;98300.31;;;19.23;70.87